sensor_id;sensor_type;location;lat;lon;timestamp;pressure;altitude;pressure_sealevel;temperature;humidity
79645;BME280;69117;47.148;18.954;2023-06-19T00:02:42;100510.50;;;16.73;46.78
79645;BME280;69117;47.148;18.954;2023-06-19T00:05:44;100499.69;;;16.52;46.69
79645;BME280;69117;47.148;18.954;2023-06-19T00:08:46;100510.31;;;16.37;46.54
79645;BME280;69117;47.148;18.954;2023-06-19T00:11:47;100500.66;;;16.36;46.48
79645;BME280;69117;47.148;18.954;2023-06-19T00:14:49;100500.78;;;16.19;46.51
79645;BME280;69117;47.148;18.954;2023-06-19T00:17:51;100492.31;;;16.16;46.59
79645;BME280;69117;47.148;18.954;2023-06-19T00:20:53;100502.97;;;16.16;46.44
79645;BME280;69117;47.148;18.954;2023-06-19T00:23:57;100497.06;;;15.97;46.44
79645;BME280;69117;47.148;18.954;2023-06-19T00:26:59;100505.38;;;16.02;46.39
79645;BME280;69117;47.148;18.954;2023-06-19T00:30:05;100513.97;;;15.90;46.73
79645;BME280;69117;47.148;18.954;2023-06-19T00:33:07;100499.09;;;15.95;46.69
79645;BME280;69117;47.148;18.954;2023-06-19T00:36:10;100510.75;;;15.94;46.78
79645;BME280;69117;47.148;18.954;2023-06-19T00:39:12;100503.91;;;15.69;46.72
79645;BME280;69117;47.148;18.954;2023-06-19T00:42:14;100497.59;;;15.62;46.69
79645;BME280;69117;47.148;18.954;2023-06-19T00:45:16;100500.75;;;15.57;46.69
79645;BME280;69117;47.148;18.954;2023-06-19T00:48:17;100499.41;;;15.61;46.68
79645;BME280;69117;47.148;18.954;2023-06-19T00:51:19;100497.41;;;15.63;46.53
79645;BME280;69117;47.148;18.954;2023-06-19T00:54:21;100501.25;;;15.69;46.59
79645;BME280;69117;47.148;18.954;2023-06-19T00:57:23;100500.22;;;15.70;46.42
79645;BME280;69117;47.148;18.954;2023-06-19T01:00:24;100506.44;;;15.54;46.55
79645;BME280;69117;47.148;18.954;2023-06-19T01:03:26;100508.00;;;15.40;46.62
79645;BME280;69117;47.148;18.954;2023-06-19T01:06:32;100499.50;;;15.37;46.66
79645;BME280;69117;47.148;18.954;2023-06-19T01:09:46;100490.06;;;15.26;46.52
79645;BME280;69117;47.148;18.954;2023-06-19T01:12:57;100488.25;;;15.18;46.58
79645;BME280;69117;47.148;18.954;2023-06-19T01:16:02;100488.13;;;15.11;46.46
79645;BME280;69117;47.148;18.954;2023-06-19T01:19:05;100492.13;;;15.07;46.46
79645;BME280;69117;47.148;18.954;2023-06-19T01:22:11;100502.25;;;15.12;46.58
79645;BME280;69117;47.148;18.954;2023-06-19T01:25:23;100497.72;;;15.21;46.67
79645;BME280;69117;47.148;18.954;2023-06-19T01:28:25;100487.75;;;15.23;46.47
79645;BME280;69117;47.148;18.954;2023-06-19T01:31:33;100498.53;;;15.29;46.70
79645;BME280;69117;47.148;18.954;2023-06-19T01:34:36;100485.56;;;15.34;46.83
79645;BME280;69117;47.148;18.954;2023-06-19T01:37:42;100484.72;;;15.34;46.92
79645;BME280;69117;47.148;18.954;2023-06-19T01:40:44;100482.72;;;15.28;46.85
79645;BME280;69117;47.148;18.954;2023-06-19T01:43:47;100472.84;;;15.05;46.74
79645;BME280;69117;47.148;18.954;2023-06-19T01:46:50;100473.88;;;14.88;46.75
79645;BME280;69117;47.148;18.954;2023-06-19T01:49:52;100468.53;;;14.88;46.72
79645;BME280;69117;47.148;18.954;2023-06-19T01:52:55;100472.03;;;14.88;46.70
79645;BME280;69117;47.148;18.954;2023-06-19T01:55:58;100468.19;;;14.91;46.78
79645;BME280;69117;47.148;18.954;2023-06-19T01:59:00;100474.34;;;14.92;46.99
79645;BME280;69117;47.148;18.954;2023-06-19T02:02:01;100481.16;;;14.94;47.12
79645;BME280;69117;47.148;18.954;2023-06-19T02:05:05;100474.53;;;14.90;47.05
79645;BME280;69117;47.148;18.954;2023-06-19T02:08:07;100473.03;;;14.87;47.27
79645;BME280;69117;47.148;18.954;2023-06-19T02:11:09;100476.66;;;14.95;47.15
79645;BME280;69117;47.148;18.954;2023-06-19T02:14:10;100477.66;;;15.02;47.10
79645;BME280;69117;47.148;18.954;2023-06-19T02:17:12;100481.63;;;15.14;47.82
79645;BME280;69117;47.148;18.954;2023-06-19T02:20:14;100491.59;;;15.20;48.15
79645;BME280;69117;47.148;18.954;2023-06-19T02:23:16;100485.44;;;15.11;48.25
79645;BME280;69117;47.148;18.954;2023-06-19T02:26:18;100484.50;;;14.96;48.33
79645;BME280;69117;47.148;18.954;2023-06-19T02:29:20;100490.50;;;14.90;48.19
79645;BME280;69117;47.148;18.954;2023-06-19T02:32:21;100495.16;;;14.88;48.15
79645;BME280;69117;47.148;18.954;2023-06-19T02:35:23;100497.13;;;14.94;47.97
79645;BME280;69117;47.148;18.954;2023-06-19T02:38:25;100485.19;;;14.82;47.96
79645;BME280;69117;47.148;18.954;2023-06-19T02:41:27;100492.97;;;15.00;48.18
79645;BME280;69117;47.148;18.954;2023-06-19T02:44:29;100499.72;;;15.19;47.97
79645;BME280;69117;47.148;18.954;2023-06-19T02:47:30;100501.25;;;15.13;48.19
79645;BME280;69117;47.148;18.954;2023-06-19T02:50:35;100504.28;;;15.10;48.15
79645;BME280;69117;47.148;18.954;2023-06-19T02:53:36;100508.06;;;15.16;48.18
79645;BME280;69117;47.148;18.954;2023-06-19T02:56:38;100506.06;;;15.18;48.17
79645;BME280;69117;47.148;18.954;2023-06-19T02:59:40;100492.06;;;15.24;48.13
79645;BME280;69117;47.148;18.954;2023-06-19T03:02:42;100498.41;;;15.15;47.96
79645;BME280;69117;47.148;18.954;2023-06-19T03:05:45;100499.56;;;15.20;48.09
79645;BME280;69117;47.148;18.954;2023-06-19T03:08:47;100500.88;;;15.24;48.03
79645;BME280;69117;47.148;18.954;2023-06-19T03:11:48;100496.38;;;15.25;48.22
79645;BME280;69117;47.148;18.954;2023-06-19T03:14:50;100501.25;;;15.13;48.13
79645;BME280;69117;47.148;18.954;2023-06-19T03:17:53;100497.75;;;15.12;47.86
79645;BME280;69117;47.148;18.954;2023-06-19T03:20:54;100494.44;;;15.10;47.98
79645;BME280;69117;47.148;18.954;2023-06-19T03:23:56;100507.56;;;15.20;47.90
79645;BME280;69117;47.148;18.954;2023-06-19T03:26:58;100496.44;;;15.17;47.95
79645;BME280;69117;47.148;18.954;2023-06-19T03:30:00;100500.41;;;15.12;47.85
79645;BME280;69117;47.148;18.954;2023-06-19T03:33:01;100508.06;;;15.16;48.13
79645;BME280;69117;47.148;18.954;2023-06-19T03:36:03;100504.72;;;15.22;47.87
79645;BME280;69117;47.148;18.954;2023-06-19T03:39:05;100508.72;;;15.18;47.95
79645;BME280;69117;47.148;18.954;2023-06-19T03:42:07;100507.53;;;15.28;48.15
79645;BME280;69117;47.148;18.954;2023-06-19T03:45:09;100508.81;;;15.41;48.01
79645;BME280;69117;47.148;18.954;2023-06-19T03:48:11;100511.25;;;15.58;47.89
79645;BME280;69117;47.148;18.954;2023-06-19T03:51:13;100507.88;;;15.73;47.84
79645;BME280;69117;47.148;18.954;2023-06-19T03:54:14;100503.78;;;15.93;47.84
79645;BME280;69117;47.148;18.954;2023-06-19T03:57:16;100509.59;;;16.20;47.79
79645;BME280;69117;47.148;18.954;2023-06-19T04:00:18;100515.78;;;16.43;47.75
79645;BME280;69117;47.148;18.954;2023-06-19T04:03:20;100516.00;;;16.57;47.75
79645;BME280;69117;47.148;18.954;2023-06-19T04:06:22;100514.25;;;16.64;47.62
79645;BME280;69117;47.148;18.954;2023-06-19T04:09:24;100515.34;;;16.78;47.60
79645;BME280;69117;47.148;18.954;2023-06-19T04:12:26;100520.16;;;16.97;47.45
79645;BME280;69117;47.148;18.954;2023-06-19T04:15:28;100512.34;;;16.96;47.39
79645;BME280;69117;47.148;18.954;2023-06-19T04:18:29;100515.09;;;17.02;47.26
79645;BME280;69117;47.148;18.954;2023-06-19T04:21:31;100512.63;;;17.15;47.32
79645;BME280;69117;47.148;18.954;2023-06-19T04:24:33;100523.22;;;17.24;47.17
79645;BME280;69117;47.148;18.954;2023-06-19T04:27:34;100519.53;;;17.10;47.00
79645;BME280;69117;47.148;18.954;2023-06-19T04:30:36;100519.25;;;17.05;47.02
79645;BME280;69117;47.148;18.954;2023-06-19T04:33:40;100526.97;;;17.00;46.89
79645;BME280;69117;47.148;18.954;2023-06-19T04:36:43;100521.44;;;16.86;46.91
79645;BME280;69117;47.148;18.954;2023-06-19T04:39:46;100519.13;;;16.83;46.84
79645;BME280;69117;47.148;18.954;2023-06-19T04:42:47;100524.75;;;16.88;46.77
79645;BME280;69117;47.148;18.954;2023-06-19T04:45:49;100522.00;;;17.11;46.81
79645;BME280;69117;47.148;18.954;2023-06-19T04:48:51;100520.75;;;17.37;46.76
79645;BME280;69117;47.148;18.954;2023-06-19T04:51:52;100524.41;;;17.66;46.78
79645;BME280;69117;47.148;18.954;2023-06-19T04:54:54;100528.63;;;17.90;46.77
79645;BME280;69117;47.148;18.954;2023-06-19T04:57:56;100523.31;;;18.11;46.62
79645;BME280;69117;47.148;18.954;2023-06-19T05:00:57;100524.34;;;18.31;46.49
79645;BME280;69117;47.148;18.954;2023-06-19T05:03:59;100510.38;;;18.36;46.46
79645;BME280;69117;47.148;18.954;2023-06-19T05:07:01;100523.84;;;18.64;46.39
79645;BME280;69117;47.148;18.954;2023-06-19T05:10:03;100532.47;;;18.88;46.16
79645;BME280;69117;47.148;18.954;2023-06-19T05:13:05;100533.84;;;19.05;46.25
79645;BME280;69117;47.148;18.954;2023-06-19T05:16:07;100540.56;;;19.22;46.17
79645;BME280;69117;47.148;18.954;2023-06-19T05:19:09;100544.53;;;19.33;46.02
79645;BME280;69117;47.148;18.954;2023-06-19T05:22:10;100551.03;;;19.52;46.03
79645;BME280;69117;47.148;18.954;2023-06-19T05:25:12;100555.13;;;19.83;45.96
79645;BME280;69117;47.148;18.954;2023-06-19T05:28:14;100545.50;;;20.08;45.94
79645;BME280;69117;47.148;18.954;2023-06-19T05:31:15;100547.84;;;20.25;45.94
79645;BME280;69117;47.148;18.954;2023-06-19T05:34:17;100544.00;;;20.61;46.36
79645;BME280;69117;47.148;18.954;2023-06-19T05:37:19;100557.22;;;20.89;46.22
79645;BME280;69117;47.148;18.954;2023-06-19T05:40:20;100554.09;;;21.12;46.31
79645;BME280;69117;47.148;18.954;2023-06-19T05:43:22;100555.53;;;21.21;46.30
79645;BME280;69117;47.148;18.954;2023-06-19T05:46:26;100560.09;;;21.40;46.22
79645;BME280;69117;47.148;18.954;2023-06-19T05:49:27;100540.22;;;21.41;46.22
79645;BME280;69117;47.148;18.954;2023-06-19T05:52:29;100552.38;;;21.64;46.12
79645;BME280;69117;47.148;18.954;2023-06-19T05:55:31;100557.06;;;21.75;46.12
79645;BME280;69117;47.148;18.954;2023-06-19T05:58:32;100560.31;;;21.97;46.00
79645;BME280;69117;47.148;18.954;2023-06-19T06:01:34;100562.13;;;22.03;46.07
79645;BME280;69117;47.148;18.954;2023-06-19T06:04:36;100560.22;;;22.10;45.94
79645;BME280;69117;47.148;18.954;2023-06-19T06:07:38;100566.06;;;22.46;73.66
79645;BME280;69117;47.148;18.954;2023-06-19T06:10:43;100565.25;;;22.70;72.08
79645;BME280;69117;47.148;18.954;2023-06-19T06:13:44;100557.44;;;22.87;70.36
79645;BME280;69117;47.148;18.954;2023-06-19T06:16:46;100570.81;;;23.25;69.26
79645;BME280;69117;47.148;18.954;2023-06-19T06:19:48;100580.31;;;23.71;68.51
79645;BME280;69117;47.148;18.954;2023-06-19T06:22:49;100574.16;;;23.64;68.42
79645;BME280;69117;47.148;18.954;2023-06-19T06:25:51;100573.97;;;23.59;65.45
79645;BME280;69117;47.148;18.954;2023-06-19T06:28:53;100573.06;;;23.28;66.75
79645;BME280;69117;47.148;18.954;2023-06-19T06:32:05;100580.06;;;23.36;66.44
79645;BME280;69117;47.148;18.954;2023-06-19T06:35:08;100593.84;;;23.65;63.71
79645;BME280;69117;47.148;18.954;2023-06-19T06:38:10;100588.06;;;23.24;63.01
79645;BME280;69117;47.148;18.954;2023-06-19T06:41:12;100586.72;;;23.34;64.56
79645;BME280;69117;47.148;18.954;2023-06-19T06:44:14;100594.44;;;23.48;62.61
79645;BME280;69117;47.148;18.954;2023-06-19T06:47:15;100594.13;;;23.57;66.45
79645;BME280;69117;47.148;18.954;2023-06-19T06:50:17;100590.69;;;23.68;67.53
79645;BME280;69117;47.148;18.954;2023-06-19T06:53:19;100593.44;;;24.16;63.72
79645;BME280;69117;47.148;18.954;2023-06-19T06:56:20;100595.72;;;24.50;61.15
79645;BME280;69117;47.148;18.954;2023-06-19T06:59:22;100590.72;;;24.65;59.79
79645;BME280;69117;47.148;18.954;2023-06-19T07:02:24;100591.50;;;25.19;61.42
79645;BME280;69117;47.148;18.954;2023-06-19T07:05:28;100591.63;;;25.24;58.00
79645;BME280;69117;47.148;18.954;2023-06-19T07:08:31;100587.69;;;24.85;54.83
79645;BME280;69117;47.148;18.954;2023-06-19T07:11:33;100579.63;;;25.08;53.42
79645;BME280;69117;47.148;18.954;2023-06-19T07:14:34;100581.25;;;25.56;53.86
79645;BME280;69117;47.148;18.954;2023-06-19T07:17:36;100573.56;;;25.77;53.88
79645;BME280;69117;47.148;18.954;2023-06-19T07:20:38;100583.69;;;25.93;54.28
79645;BME280;69117;47.148;18.954;2023-06-19T07:23:40;100581.63;;;26.29;50.73
79645;BME280;69117;47.148;18.954;2023-06-19T07:26:42;100579.59;;;26.08;47.97
79645;BME280;69117;47.148;18.954;2023-06-19T07:29:44;100578.63;;;25.85;49.97
79645;BME280;69117;47.148;18.954;2023-06-19T07:32:45;100568.00;;;26.24;50.04
79645;BME280;69117;47.148;18.954;2023-06-19T07:35:47;100576.47;;;26.44;48.05
79645;BME280;69117;47.148;18.954;2023-06-19T07:38:49;100575.81;;;26.83;46.33
79645;BME280;69117;47.148;18.954;2023-06-19T07:41:50;100560.81;;;26.46;48.71
79645;BME280;69117;47.148;18.954;2023-06-19T07:44:52;100572.63;;;26.86;48.69
79645;BME280;69117;47.148;18.954;2023-06-19T07:47:55;100578.69;;;27.10;48.07
79645;BME280;69117;47.148;18.954;2023-06-19T07:50:57;100568.84;;;26.70;48.49
79645;BME280;69117;47.148;18.954;2023-06-19T07:53:59;100573.13;;;26.37;46.24
79645;BME280;69117;47.148;18.954;2023-06-19T07:57:01;100571.22;;;26.83;51.01
79645;BME280;69117;47.148;18.954;2023-06-19T08:00:04;100575.81;;;27.33;48.86
79645;BME280;69117;47.148;18.954;2023-06-19T08:03:24;100575.94;;;27.44;47.78
79645;BME280;69117;47.148;18.954;2023-06-19T08:06:25;100571.78;;;26.85;43.60
79645;BME280;69117;47.148;18.954;2023-06-19T08:09:27;100563.06;;;27.34;46.10
79645;BME280;69117;47.148;18.954;2023-06-19T08:12:29;100559.03;;;27.80;45.01
79645;BME280;69117;47.148;18.954;2023-06-19T08:15:31;100569.34;;;27.17;43.66
79645;BME280;69117;47.148;18.954;2023-06-19T08:18:33;100565.34;;;27.42;43.29
79645;BME280;69117;47.148;18.954;2023-06-19T08:21:34;100549.94;;;27.48;42.47
79645;BME280;69117;47.148;18.954;2023-06-19T08:24:36;100567.13;;;27.75;41.25
79645;BME280;69117;47.148;18.954;2023-06-19T08:27:41;100567.03;;;28.14;41.45
79645;BME280;69117;47.148;18.954;2023-06-19T08:30:44;100558.97;;;27.97;39.56
79645;BME280;69117;47.148;18.954;2023-06-19T08:33:47;100563.25;;;28.74;40.81
79645;BME280;69117;47.148;18.954;2023-06-19T08:36:55;100548.03;;;29.06;42.30
79645;BME280;69117;47.148;18.954;2023-06-19T08:39:56;100555.41;;;29.15;38.46
79645;BME280;69117;47.148;18.954;2023-06-19T08:42:58;100560.88;;;29.63;38.27
79645;BME280;69117;47.148;18.954;2023-06-19T08:46:10;100561.38;;;29.60;36.08
79645;BME280;69117;47.148;18.954;2023-06-19T08:49:13;100552.66;;;30.41;41.40
79645;BME280;69117;47.148;18.954;2023-06-19T08:52:14;100550.72;;;30.21;38.91
79645;BME280;69117;47.148;18.954;2023-06-19T08:55:16;100552.91;;;30.65;37.45
79645;BME280;69117;47.148;18.954;2023-06-19T08:58:22;100548.34;;;29.67;36.52
79645;BME280;69117;47.148;18.954;2023-06-19T09:01:25;100551.97;;;29.30;38.36
79645;BME280;69117;47.148;18.954;2023-06-19T09:04:28;100550.34;;;29.97;38.28
79645;BME280;69117;47.148;18.954;2023-06-19T09:07:30;100546.78;;;29.92;35.61
79645;BME280;69117;47.148;18.954;2023-06-19T09:10:32;100547.22;;;29.10;38.11
79645;BME280;69117;47.148;18.954;2023-06-19T09:13:34;100544.56;;;29.20;37.79
79645;BME280;69117;47.148;18.954;2023-06-19T09:16:40;100548.41;;;28.87;40.05
79645;BME280;69117;47.148;18.954;2023-06-19T09:19:50;100540.56;;;28.59;38.54
79645;BME280;69117;47.148;18.954;2023-06-19T09:22:57;100539.09;;;29.15;36.15
79645;BME280;69117;47.148;18.954;2023-06-19T09:25:59;100543.66;;;29.57;35.71
79645;BME280;69117;47.148;18.954;2023-06-19T09:29:13;100546.03;;;30.11;36.96
79645;BME280;69117;47.148;18.954;2023-06-19T09:32:26;100539.22;;;30.14;38.67
79645;BME280;69117;47.148;18.954;2023-06-19T09:35:28;100541.13;;;30.08;39.72
79645;BME280;69117;47.148;18.954;2023-06-19T09:38:37;100537.81;;;29.91;36.24
79645;BME280;69117;47.148;18.954;2023-06-19T09:41:40;100542.50;;;30.11;40.72
79645;BME280;69117;47.148;18.954;2023-06-19T09:44:45;100538.47;;;29.03;38.37
79645;BME280;69117;47.148;18.954;2023-06-19T09:47:51;100538.91;;;28.90;40.31
79645;BME280;69117;47.148;18.954;2023-06-19T09:51:05;100541.25;;;29.08;41.27
79645;BME280;69117;47.148;18.954;2023-06-19T09:54:07;100544.59;;;29.78;40.31
79645;BME280;69117;47.148;18.954;2023-06-19T09:57:10;100533.81;;;30.96;37.31
79645;BME280;69117;47.148;18.954;2023-06-19T10:00:13;100526.03;;;29.80;35.65
79645;BME280;69117;47.148;18.954;2023-06-19T10:03:17;100515.97;;;31.34;36.16
79645;BME280;69117;47.148;18.954;2023-06-19T10:06:22;100518.00;;;31.73;35.89
79645;BME280;69117;47.148;18.954;2023-06-19T10:09:23;100519.50;;;31.40;32.31
79645;BME280;69117;47.148;18.954;2023-06-19T10:12:42;100502.66;;;31.77;33.44
79645;BME280;69117;47.148;18.954;2023-06-19T10:15:44;100506.66;;;32.00;32.97
79645;BME280;69117;47.148;18.954;2023-06-19T10:18:46;100506.31;;;32.46;33.17
79645;BME280;69117;47.148;18.954;2023-06-19T10:21:50;100506.31;;;31.62;34.96
79645;BME280;69117;47.148;18.954;2023-06-19T10:24:52;100498.84;;;31.78;33.88
79645;BME280;69117;47.148;18.954;2023-06-19T10:27:54;100495.59;;;32.15;33.79
79645;BME280;69117;47.148;18.954;2023-06-19T10:31:01;100486.94;;;32.03;32.90
79645;BME280;69117;47.148;18.954;2023-06-19T10:34:03;100492.94;;;31.56;34.23
79645;BME280;69117;47.148;18.954;2023-06-19T10:37:05;100491.28;;;32.09;31.64
79645;BME280;69117;47.148;18.954;2023-06-19T10:40:07;100480.50;;;32.87;28.66
79645;BME280;69117;47.148;18.954;2023-06-19T10:43:21;100482.91;;;33.17;36.43
79645;BME280;69117;47.148;18.954;2023-06-19T10:46:34;100475.47;;;33.23;31.16
79645;BME280;69117;47.148;18.954;2023-06-19T10:49:37;100484.94;;;33.30;32.69
79645;BME280;69117;47.148;18.954;2023-06-19T10:52:43;100484.13;;;33.30;28.91
79645;BME280;69117;47.148;18.954;2023-06-19T10:55:45;100481.31;;;33.35;29.75
79645;BME280;69117;47.148;18.954;2023-06-19T10:58:46;100481.53;;;33.20;29.41
79645;BME280;69117;47.148;18.954;2023-06-19T11:01:48;100478.88;;;33.10;29.51
79645;BME280;69117;47.148;18.954;2023-06-19T11:04:53;100474.81;;;33.74;29.13
79645;BME280;69117;47.148;18.954;2023-06-19T11:07:58;100475.09;;;33.72;27.48
79645;BME280;69117;47.148;18.954;2023-06-19T11:10:59;100480.66;;;33.86;29.10
79645;BME280;69117;47.148;18.954;2023-06-19T11:14:02;100477.16;;;34.00;29.53
79645;BME280;69117;47.148;18.954;2023-06-19T11:17:03;100475.47;;;33.66;30.03
79645;BME280;69117;47.148;18.954;2023-06-19T11:20:10;100482.94;;;34.50;27.62
79645;BME280;69117;47.148;18.954;2023-06-19T11:23:12;100478.47;;;35.14;28.29
79645;BME280;69117;47.148;18.954;2023-06-19T11:26:14;100478.91;;;34.61;27.63
79645;BME280;69117;47.148;18.954;2023-06-19T11:32:21;100462.16;;;34.30;27.69
79645;BME280;69117;47.148;18.954;2023-06-19T11:35:32;100465.38;;;33.37;29.01
79645;BME280;69117;47.148;18.954;2023-06-19T11:38:36;100460.03;;;34.87;29.65
79645;BME280;69117;47.148;18.954;2023-06-19T11:41:40;100461.25;;;35.36;27.94
79645;BME280;69117;47.148;18.954;2023-06-19T11:45:12;100455.16;;;34.84;27.99
79645;BME280;69117;47.148;18.954;2023-06-19T11:48:13;100443.75;;;35.18;26.85
79645;BME280;69117;47.148;18.954;2023-06-19T11:51:15;100447.38;;;35.41;25.28
79645;BME280;69117;47.148;18.954;2023-06-19T11:54:17;100440.16;;;35.45;26.40
79645;BME280;69117;47.148;18.954;2023-06-19T11:57:26;100436.16;;;35.51;26.74
79645;BME280;69117;47.148;18.954;2023-06-19T12:00:28;100446.34;;;35.65;25.66
79645;BME280;69117;47.148;18.954;2023-06-19T12:03:30;100448.84;;;36.42;27.17
79645;BME280;69117;47.148;18.954;2023-06-19T12:06:32;100448.53;;;36.44;27.50
79645;BME280;69117;47.148;18.954;2023-06-19T12:09:34;100435.97;;;35.62;25.36
79645;BME280;69117;47.148;18.954;2023-06-19T12:12:36;100438.16;;;34.82;26.36
79645;BME280;69117;47.148;18.954;2023-06-19T12:15:39;100432.34;;;34.97;30.29
79645;BME280;69117;47.148;18.954;2023-06-19T12:18:41;100433.09;;;33.77;27.37
79645;BME280;69117;47.148;18.954;2023-06-19T12:21:43;100432.28;;;35.16;26.83
79645;BME280;69117;47.148;18.954;2023-06-19T12:24:44;100414.53;;;35.72;27.40
79645;BME280;69117;47.148;18.954;2023-06-19T12:27:46;100413.84;;;36.34;26.39
79645;BME280;69117;47.148;18.954;2023-06-19T12:30:49;100424.09;;;35.75;25.91
79645;BME280;69117;47.148;18.954;2023-06-19T12:33:54;100417.00;;;36.28;26.59
79645;BME280;69117;47.148;18.954;2023-06-19T12:37:04;100404.97;;;37.43;25.32
79645;BME280;69117;47.148;18.954;2023-06-19T12:40:06;100410.28;;;36.42;26.14
79645;BME280;69117;47.148;18.954;2023-06-19T12:43:12;100419.72;;;35.96;26.89
79645;BME280;69117;47.148;18.954;2023-06-19T12:46:13;100408.06;;;37.59;27.36
79645;BME280;69117;47.148;18.954;2023-06-19T12:49:15;100398.59;;;36.28;24.64
79645;BME280;69117;47.148;18.954;2023-06-19T12:52:17;100408.47;;;35.62;25.62
79645;BME280;69117;47.148;18.954;2023-06-19T12:55:19;100394.28;;;35.68;25.93
79645;BME280;69117;47.148;18.954;2023-06-19T12:58:20;100397.31;;;36.65;25.65
79645;BME280;69117;47.148;18.954;2023-06-19T13:01:22;100384.19;;;37.20;23.66
79645;BME280;69117;47.148;18.954;2023-06-19T13:04:24;100384.22;;;36.88;24.98
79645;BME280;69117;47.148;18.954;2023-06-19T13:07:25;100389.72;;;36.71;27.20
79645;BME280;69117;47.148;18.954;2023-06-19T13:10:27;100375.13;;;37.63;25.73
79645;BME280;69117;47.148;18.954;2023-06-19T13:13:29;100384.19;;;37.98;27.46
79645;BME280;69117;47.148;18.954;2023-06-19T13:16:31;100378.44;;;36.99;23.14
79645;BME280;69117;47.148;18.954;2023-06-19T13:19:46;100377.56;;;38.37;25.03
79645;BME280;69117;47.148;18.954;2023-06-19T13:22:48;100378.06;;;38.31;24.39
79645;BME280;69117;47.148;18.954;2023-06-19T13:25:49;100370.84;;;38.00;24.16
79645;BME280;69117;47.148;18.954;2023-06-19T13:28:51;100379.09;;;38.64;23.65
79645;BME280;69117;47.148;18.954;2023-06-19T13:31:53;100377.34;;;37.87;23.08
79645;BME280;69117;47.148;18.954;2023-06-19T13:34:55;100372.16;;;38.02;26.52
79645;BME280;69117;47.148;18.954;2023-06-19T13:37:57;100372.91;;;38.20;23.36
79645;BME280;69117;47.148;18.954;2023-06-19T13:40:59;100371.16;;;37.03;28.84
79645;BME280;69117;47.148;18.954;2023-06-19T13:44:00;100362.31;;;37.49;25.68
79645;BME280;69117;47.148;18.954;2023-06-19T13:47:03;100369.75;;;37.75;24.09
79645;BME280;69117;47.148;18.954;2023-06-19T13:50:06;100360.81;;;39.31;22.05
79645;BME280;69117;47.148;18.954;2023-06-19T13:53:08;100369.03;;;39.19;24.59
79645;BME280;69117;47.148;18.954;2023-06-19T13:56:11;100374.50;;;38.39;26.01
79645;BME280;69117;47.148;18.954;2023-06-19T13:59:13;100367.28;;;37.99;24.20
79645;BME280;69117;47.148;18.954;2023-06-19T14:02:15;100365.53;;;38.42;22.91
79645;BME280;69117;47.148;18.954;2023-06-19T14:05:16;100369.59;;;38.44;23.64
79645;BME280;69117;47.148;18.954;2023-06-19T14:08:18;100365.09;;;38.99;23.23
79645;BME280;69117;47.148;18.954;2023-06-19T14:11:20;100374.13;;;37.93;24.35
79645;BME280;69117;47.148;18.954;2023-06-19T14:14:22;100379.09;;;38.64;23.32
79645;BME280;69117;47.148;18.954;2023-06-19T14:17:24;100364.41;;;37.26;25.31
79645;BME280;69117;47.148;18.954;2023-06-19T14:20:25;100367.78;;;37.06;26.90
79645;BME280;69117;47.148;18.954;2023-06-19T14:23:27;100367.16;;;37.61;22.37
79645;BME280;69117;47.148;18.954;2023-06-19T14:26:29;100366.09;;;36.87;24.57
79645;BME280;69117;47.148;18.954;2023-06-19T14:29:37;100366.34;;;37.69;24.82
79645;BME280;69117;47.148;18.954;2023-06-19T14:32:39;100362.06;;;38.54;22.94
79645;BME280;69117;47.148;18.954;2023-06-19T14:35:42;100366.28;;;38.60;24.00
79645;BME280;69117;47.148;18.954;2023-06-19T14:38:46;100360.56;;;38.65;21.16
79645;BME280;69117;47.148;18.954;2023-06-19T14:41:47;100365.16;;;38.05;23.46
79645;BME280;69117;47.148;18.954;2023-06-19T14:44:49;100355.16;;;36.56;25.30
79645;BME280;69117;47.148;18.954;2023-06-19T14:47:51;100351.75;;;37.69;23.76
79645;BME280;69117;47.148;18.954;2023-06-19T14:50:52;100344.03;;;38.56;21.37
79645;BME280;69117;47.148;18.954;2023-06-19T14:53:54;100356.50;;;38.62;22.98
79645;BME280;69117;47.148;18.954;2023-06-19T14:56:56;100342.78;;;38.45;23.70
79645;BME280;69117;47.148;18.954;2023-06-19T14:59:58;100345.75;;;39.41;22.31
79645;BME280;69117;47.148;18.954;2023-06-19T15:02:59;100340.81;;;39.26;21.75
79645;BME280;69117;47.148;18.954;2023-06-19T15:06:02;100339.56;;;39.77;22.58
79645;BME280;69117;47.148;18.954;2023-06-19T15:09:04;100342.38;;;38.25;23.86
79645;BME280;69117;47.148;18.954;2023-06-19T15:12:06;100341.00;;;38.70;24.46
79645;BME280;69117;47.148;18.954;2023-06-19T15:15:08;100341.44;;;38.81;25.59
79645;BME280;69117;47.148;18.954;2023-06-19T15:18:10;100346.09;;;38.21;21.99
79645;BME280;69117;47.148;18.954;2023-06-19T15:21:11;100348.19;;;37.59;24.22
79645;BME280;69117;47.148;18.954;2023-06-19T15:24:13;100346.06;;;37.74;22.96
79645;BME280;69117;47.148;18.954;2023-06-19T15:27:15;100344.09;;;37.83;21.39
79645;BME280;69117;47.148;18.954;2023-06-19T15:30:17;100350.75;;;37.73;24.58
79645;BME280;69117;47.148;18.954;2023-06-19T15:33:18;100345.84;;;37.88;26.04
79645;BME280;69117;47.148;18.954;2023-06-19T15:36:20;100342.28;;;39.02;24.67
79645;BME280;69117;47.148;18.954;2023-06-19T15:39:22;100342.97;;;38.99;23.28
79645;BME280;69117;47.148;18.954;2023-06-19T15:42:23;100345.03;;;38.52;23.82
79645;BME280;69117;47.148;18.954;2023-06-19T15:45:25;100332.72;;;39.21;24.20
79645;BME280;69117;47.148;18.954;2023-06-19T15:48:27;100336.47;;;38.36;22.01